Time;durP1;ratioP1;P1;durP2;ratioP2;P2;SDS_P1;SDS_P2;PMS_P1;PMS_P2;Temp;Humidity;BMP_temperature;BMP_pressure;BME280_temperature;BME280_humidity;BME280_pressure;Samples;Min_cycle;Max_cycle;Signal;HPM_P1;HPM_P2
2022/10/20 00:02:04;;;;;;;23.40;17.80;;;11.20;99.90;;;;;;5113747;27;20471;-70
2022/10/20 00:04:31;;;;;;;18.07;16.23;;;11.20;99.90;;;;;;5115796;27;20719;-73
2022/10/20 00:06:58;;;;;;;27.30;15.80;;;11.20;99.90;;;;;;5112558;27;20466;-73
2022/10/20 00:09:26;;;;;;;18.33;16.13;;;11.20;99.90;;;;;;5110530;27;20902;-73
2022/10/20 00:11:53;;;;;;;19.53;16.03;;;11.20;99.90;;;;;;5114378;27;20846;-69
2022/10/20 00:14:20;;;;;;;19.83;16.93;;;11.20;99.90;;;;;;5111687;27;20464;-69
2022/10/20 00:16:47;;;;;;;27.70;18.23;;;11.20;99.90;;;;;;5111931;27;20495;-71
2022/10/20 00:19:14;;;;;;;22.50;16.43;;;11.20;99.90;;;;;;5096796;27;20487;-70
2022/10/20 00:21:41;;;;;;;25.43;18.23;;;11.20;99.90;;;;;;5096541;27;20498;-71
2022/10/20 00:24:07;;;;;;;26.40;17.30;;;11.20;99.90;;;;;;5107630;27;21073;-69
2022/10/20 00:26:36;;;;;;;21.63;15.60;;;11.20;99.90;;;;;;5109975;27;20465;-70
2022/10/20 00:29:03;;;;;;;22.27;16.40;;;11.20;99.90;;;;;;5114876;27;20457;-70
2022/10/20 00:31:30;;;;;;;22.30;17.70;;;11.20;99.90;;;;;;5110285;27;20502;-69
2022/10/20 00:33:58;;;;;;;19.93;17.47;;;11.30;99.90;;;;;;5111147;27;20467;-72
2022/10/20 00:36:25;;;;;;;27.47;17.90;;;11.20;99.90;;;;;;5105689;27;20484;-72
2022/10/20 00:38:58;;;;;;;22.50;17.17;;;11.20;99.90;;;;;;5110640;27;20461;-69
2022/10/20 00:41:25;;;;;;;19.27;17.23;;;11.30;99.90;;;;;;5110917;27;20777;-70
2022/10/20 00:43:57;;;;;;;20.90;16.50;;;11.30;99.90;;;;;;5108768;27;20998;-71
2022/10/20 00:46:26;;;;;;;27.40;18.00;;;11.40;99.90;;;;;;5113330;27;20833;-70
2022/10/20 00:48:56;;;;;;;23.27;17.63;;;11.30;99.90;;;;;;5110618;27;20797;-71
2022/10/20 00:51:27;;;;;;;25.30;18.00;;;11.30;99.90;;;;;;5114204;27;20469;-70
2022/10/20 00:53:58;;;;;;;24.90;18.30;;;11.30;99.90;;;;;;5099798;27;20460;-69
2022/10/20 00:56:25;;;;;;;25.30;18.67;;;11.30;99.90;;;;;;5115484;27;20481;-69
2022/10/20 00:58:52;;;;;;;22.13;18.20;;;11.30;99.90;;;;;;5118333;27;20465;-71
2022/10/20 01:01:21;;;;;;;20.23;17.57;;;11.30;99.90;;;;;;5102791;27;20475;-70
2022/10/20 01:03:50;;;;;;;22.83;18.43;;;11.40;99.90;;;;;;5116812;27;20464;-71
2022/10/20 01:06:20;;;;;;;21.07;17.90;;;11.40;99.90;;;;;;5112359;27;20457;-69
2022/10/20 01:08:47;;;;;;;26.70;18.77;;;11.40;99.90;;;;;;5116174;27;20550;-69
2022/10/20 01:11:19;;;;;;;25.07;18.90;;;11.40;99.90;;;;;;5117825;27;20483;-70
2022/10/20 01:14:09;;;;;;;24.33;17.83;;;11.40;99.90;;;;;;5113030;27;20468;-70
2022/10/20 01:16:50;;;;;;;23.83;17.90;;;11.40;99.90;;;;;;5111728;27;20498;-70
2022/10/20 01:19:52;;;;;;;27.77;18.90;;;11.40;99.90;;;;;;5105901;27;20473;-69
2022/10/20 01:22:46;;;;;;;22.67;18.70;;;11.40;99.90;;;;;;5096436;27;20460;-70
2022/10/20 01:25:20;;;;;;;19.17;16.67;;;11.40;99.90;;;;;;5099057;27;20731;-70
2022/10/20 01:27:52;;;;;;;27.27;18.67;;;11.40;99.90;;;;;;5108056;27;20487;-69
2022/10/20 01:30:21;;;;;;;23.77;17.53;;;11.40;99.90;;;;;;5096276;27;20463;-70
2022/10/20 01:32:58;;;;;;;24.60;18.73;;;11.40;99.90;;;;;;5108420;27;20956;-71
2022/10/20 01:35:35;;;;;;;21.90;19.57;;;11.50;99.90;;;;;;5098643;27;20468;-69
2022/10/20 01:38:11;;;;;;;41.10;17.50;;;11.50;99.90;;;;;;5094462;27;20485;-69
2022/10/20 01:40:44;;;;;;;22.40;18.23;;;11.50;99.90;;;;;;5103925;27;20678;-69
2022/10/20 01:43:15;;;;;;;24.43;17.37;;;11.40;99.90;;;;;;5092454;28;20465;-71
2022/10/20 01:45:46;;;;;;;31.40;18.43;;;11.50;99.90;;;;;;5104844;27;20927;-70
2022/10/20 01:48:16;;;;;;;27.33;18.43;;;11.50;99.90;;;;;;5115193;27;20457;-70
2022/10/20 01:50:45;;;;;;;23.27;18.40;;;11.50;99.90;;;;;;5111318;27;20459;-70
2022/10/20 01:53:13;;;;;;;24.23;17.97;;;11.50;99.90;;;;;;5109650;27;20464;-70
2022/10/20 01:55:41;;;;;;;30.77;18.90;;;11.40;99.90;;;;;;5110927;27;20464;-70
2022/10/20 01:58:32;;;;;;;22.43;18.47;;;11.40;99.90;;;;;;5113013;27;20477;-72
2022/10/20 02:01:06;;;;;;;27.80;18.57;;;11.40;99.90;;;;;;5113107;27;20856;-70
2022/10/20 02:03:40;;;;;;;26.67;17.70;;;11.40;99.90;;;;;;5113254;27;20457;-70
2022/10/20 02:06:18;;;;;;;22.90;17.93;;;11.50;99.90;;;;;;5111861;27;20464;-70
2022/10/20 02:08:47;;;;;;;25.23;19.53;;;11.50;99.90;;;;;;5101539;27;20989;-69
2022/10/20 02:11:22;;;;;;;19.50;17.40;;;11.40;99.90;;;;;;5107494;27;21099;-69
2022/10/20 02:13:52;;;;;;;23.43;17.47;;;11.40;99.90;;;;;;5106474;27;20463;-71
2022/10/20 02:16:23;;;;;;;22.13;18.17;;;11.40;99.90;;;;;;5105246;27;20453;-69
2022/10/20 02:18:51;;;;;;;19.33;17.27;;;11.40;99.90;;;;;;5111277;27;20497;-69
2022/10/20 02:21:19;;;;;;;20.57;17.37;;;11.30;99.90;;;;;;5104411;27;20457;-70
2022/10/20 02:23:48;;;;;;;22.23;18.03;;;11.30;99.90;;;;;;5115111;27;20452;-70
2022/10/20 02:26:18;;;;;;;22.47;16.70;;;11.30;99.90;;;;;;5112806;27;20480;-70
2022/10/20 02:28:50;;;;;;;25.90;16.50;;;11.30;99.90;;;;;;5110336;27;20538;-69
2022/10/20 02:31:19;;;;;;;20.33;17.40;;;11.30;99.90;;;;;;5104838;27;20547;-71
2022/10/20 02:33:48;;;;;;;29.90;17.77;;;11.30;99.90;;;;;;5110279;27;20499;-69
2022/10/20 02:36:18;;;;;;;20.00;16.70;;;11.40;99.90;;;;;;5113296;27;21031;-70
2022/10/20 02:38:44;;;;;;;25.20;18.30;;;11.30;99.90;;;;;;5099546;27;20476;-69
2022/10/20 02:41:12;;;;;;;24.40;17.83;;;11.30;99.90;;;;;;5100610;27;20476;-70
2022/10/20 02:43:39;;;;;;;18.83;16.83;;;11.30;99.90;;;;;;5115031;27;20458;-70
2022/10/20 02:46:06;;;;;;;20.00;18.00;;;11.30;99.90;;;;;;5103363;28;20465;-71
2022/10/20 02:48:37;;;;;;;19.33;17.40;;;11.30;99.90;;;;;;5111921;27;20543;-69
2022/10/20 02:51:05;;;;;;;20.33;18.23;;;11.30;99.90;;;;;;5112868;27;20455;-71
2022/10/20 02:53:32;;;;;;;25.67;17.80;;;11.30;99.90;;;;;;5111629;27;20556;-69
2022/10/20 02:56:00;;;;;;;26.50;17.10;;;11.30;99.90;;;;;;5110215;27;20488;-71
2022/10/20 02:58:26;;;;;;;24.20;17.90;;;11.30;99.90;;;;;;5113972;27;20557;-70
2022/10/20 03:00:53;;;;;;;20.67;17.30;;;11.40;99.90;;;;;;5112036;27;20473;-69
2022/10/20 03:03:20;;;;;;;22.93;17.30;;;11.40;99.90;;;;;;5109294;27;20939;-71
2022/10/20 03:05:49;;;;;;;22.63;16.90;;;11.40;99.90;;;;;;5113326;27;20464;-69
2022/10/20 03:08:16;;;;;;;20.90;17.23;;;11.40;99.90;;;;;;5111342;27;20854;-69
2022/10/20 03:10:43;;;;;;;26.27;18.37;;;11.40;99.90;;;;;;5109895;27;20464;-69
2022/10/20 03:13:10;;;;;;;22.37;18.13;;;11.30;99.90;;;;;;5113264;27;20457;-69
2022/10/20 03:15:38;;;;;;;24.37;16.17;;;11.30;99.90;;;;;;5112380;27;20686;-72
2022/10/20 03:18:05;;;;;;;21.80;18.07;;;11.30;99.90;;;;;;5112500;27;20595;-68
2022/10/20 03:20:32;;;;;;;21.37;18.50;;;11.30;99.90;;;;;;5107739;27;20464;-69
2022/10/20 03:23:00;;;;;;;22.07;16.90;;;11.30;99.90;;;;;;5111704;27;20470;-69
2022/10/20 03:25:27;;;;;;;20.77;18.27;;;11.30;99.90;;;;;;5107804;27;20830;-70
2022/10/20 03:27:54;;;;;;;31.37;16.70;;;11.30;99.90;;;;;;5113227;27;20485;-71
2022/10/20 03:30:21;;;;;;;22.70;17.10;;;11.30;99.90;;;;;;5111138;27;20468;-70
2022/10/20 03:32:48;;;;;;;23.23;16.80;;;11.30;99.90;;;;;;5114700;27;20461;-69
2022/10/20 03:35:15;;;;;;;21.87;16.17;;;11.30;99.90;;;;;;5109243;28;20485;-69
2022/10/20 03:37:42;;;;;;;18.40;16.40;;;11.30;99.90;;;;;;5114003;28;20488;-71
2022/10/20 03:40:10;;;;;;;23.27;16.30;;;11.30;99.90;;;;;;5114711;28;20456;-70
2022/10/20 03:42:37;;;;;;;21.57;16.73;;;11.30;99.90;;;;;;5114911;28;20882;-70
2022/10/20 03:45:05;;;;;;;17.33;15.50;;;11.30;99.90;;;;;;5112902;28;20946;-72
2022/10/20 03:47:31;;;;;;;22.33;16.60;;;11.40;99.90;;;;;;5109011;28;20468;-70
2022/10/20 03:49:58;;;;;;;30.33;17.67;;;11.40;99.90;;;;;;5109534;28;20959;-71
2022/10/20 03:52:25;;;;;;;20.90;15.90;;;11.40;99.90;;;;;;5113411;28;20464;-70
2022/10/20 03:54:52;;;;;;;19.17;16.70;;;11.30;99.90;;;;;;5111389;28;20460;-68
2022/10/20 03:57:20;;;;;;;17.87;16.00;;;11.30;99.90;;;;;;5110660;28;20468;-71
2022/10/20 03:59:47;;;;;;;19.13;15.63;;;11.40;99.90;;;;;;5111787;28;20820;-69
2022/10/20 04:02:32;;;;;;;21.83;16.03;;;11.30;99.90;;;;;;5109457;28;20460;-70
2022/10/20 04:04:59;;;;;;;21.63;15.60;;;11.30;99.90;;;;;;5107432;28;20468;-71
2022/10/20 04:07:26;;;;;;;24.93;16.70;;;11.30;99.90;;;;;;5101963;28;20464;-70
2022/10/20 04:09:53;;;;;;;18.37;15.00;;;11.30;99.90;;;;;;5102387;28;20472;-69
2022/10/20 04:12:21;;;;;;;21.63;15.97;;;11.30;99.90;;;;;;5108401;28;20463;-70
2022/10/20 04:14:48;;;;;;;25.90;15.83;;;11.30;99.90;;;;;;5105232;28;20972;-69
2022/10/20 04:17:15;;;;;;;24.10;15.97;;;11.30;99.90;;;;;;5111628;28;20456;-72
2022/10/20 04:19:42;;;;;;;21.80;15.60;;;11.30;99.90;;;;;;5111577;28;21076;-69
2022/10/20 04:22:09;;;;;;;21.60;15.13;;;11.30;99.90;;;;;;5112204;28;20902;-70
2022/10/20 04:24:36;;;;;;;22.37;17.23;;;11.30;99.90;;;;;;5107826;28;20491;-71
2022/10/20 04:27:04;;;;;;;23.47;17.43;;;11.20;99.90;;;;;;5108783;28;21008;-71
2022/10/20 04:29:32;;;;;;;21.37;17.30;;;11.20;99.90;;;;;;5109504;28;20464;-72
2022/10/20 04:31:59;;;;;;;17.80;15.20;;;11.20;99.90;;;;;;5107467;28;20580;-70
2022/10/20 04:34:26;;;;;;;21.47;15.97;;;11.20;99.90;;;;;;5111931;28;21034;-72
2022/10/20 04:36:54;;;;;;;19.37;17.20;;;11.20;99.90;;;;;;5108542;28;20558;-69
2022/10/20 04:39:21;;;;;;;20.83;17.27;;;11.30;99.90;;;;;;5109725;28;20499;-72
2022/10/20 04:41:48;;;;;;;18.77;16.90;;;11.30;99.90;;;;;;5109151;27;20461;-69
2022/10/20 04:44:15;;;;;;;19.73;16.20;;;11.30;99.90;;;;;;5116901;27;20453;-67
2022/10/20 04:46:43;;;;;;;17.17;15.37;;;11.30;99.90;;;;;;5115514;27;20464;-67
2022/10/20 04:49:10;;;;;;;18.23;16.23;;;11.20;99.90;;;;;;5117086;27;20456;-69
2022/10/20 04:51:37;;;;;;;18.33;16.27;;;11.20;99.90;;;;;;5112439;27;20469;-68
2022/10/20 04:54:04;;;;;;;18.23;16.20;;;11.20;99.90;;;;;;5114728;27;20964;-70
2022/10/20 04:56:31;;;;;;;19.93;16.30;;;11.20;99.90;;;;;;5112489;27;20465;-68
2022/10/20 04:58:58;;;;;;;35.63;17.10;;;11.20;99.90;;;;;;5118634;27;20487;-70
2022/10/20 05:01:27;;;;;;;17.87;15.60;;;11.20;99.90;;;;;;5111930;27;20986;-69
2022/10/20 05:03:56;;;;;;;21.47;15.83;;;11.20;99.90;;;;;;5116635;27;20467;-68
2022/10/20 05:06:24;;;;;;;19.43;15.20;;;11.20;99.90;;;;;;5112967;27;21057;-69
2022/10/20 05:08:52;;;;;;;18.83;15.97;;;11.20;99.90;;;;;;5111217;27;20468;-69
2022/10/20 05:11:21;;;;;;;25.63;17.03;;;11.20;99.90;;;;;;5105709;27;20457;-68
2022/10/20 05:13:48;;;;;;;18.43;16.70;;;11.20;99.90;;;;;;5110690;27;20476;-68
2022/10/20 05:16:16;;;;;;;22.80;16.20;;;11.20;99.90;;;;;;5106832;27;20472;-68
2022/10/20 05:18:43;;;;;;;19.40;15.67;;;11.10;99.90;;;;;;5116323;27;20488;-68
2022/10/20 05:21:14;;;;;;;17.20;15.40;;;11.10;99.90;;;;;;5110340;27;20474;-68
2022/10/20 05:23:42;;;;;;;17.83;15.77;;;11.10;99.90;;;;;;5112259;27;20504;-69
2022/10/20 05:26:12;;;;;;;18.70;15.33;;;11.10;99.90;;;;;;5110472;27;20476;-70
2022/10/20 05:28:42;;;;;;;23.93;16.33;;;11.10;99.90;;;;;;5115064;27;20477;-69
2022/10/20 05:31:09;;;;;;;19.10;16.63;;;11.20;99.90;;;;;;5111420;27;20449;-69
2022/10/20 05:33:39;;;;;;;25.00;17.67;;;11.10;99.90;;;;;;5115128;27;20456;-68
2022/10/20 05:36:12;;;;;;;23.43;16.70;;;11.10;99.90;;;;;;5114052;27;20585;-68
2022/10/20 05:38:40;;;;;;;23.57;15.70;;;11.10;99.90;;;;;;5112460;27;20484;-71
2022/10/20 05:41:09;;;;;;;16.70;15.10;;;11.10;99.90;;;;;;5111374;27;20576;-71
2022/10/20 05:43:36;;;;;;;26.03;16.97;;;11.10;99.90;;;;;;5114838;27;20486;-68
2022/10/20 05:46:04;;;;;;;21.17;17.00;;;11.10;99.90;;;;;;5113875;27;20475;-71
2022/10/20 05:48:31;;;;;;;16.47;14.87;;;11.20;99.90;;;;;;5114848;27;20489;-68
2022/10/20 05:51:07;;;;;;;18.00;16.20;;;11.10;99.90;;;;;;5114109;27;20863;-70
2022/10/20 05:53:37;;;;;;;19.47;15.93;;;11.10;99.90;;;;;;5108007;27;20524;-69
2022/10/20 05:56:04;;;;;;;28.60;15.40;;;11.10;99.90;;;;;;5108032;27;20452;-69
2022/10/20 05:58:31;;;;;;;17.77;15.60;;;11.10;99.90;;;;;;5113941;27;20488;-68
2022/10/20 06:01:06;;;;;;;21.63;15.73;;;11.10;99.90;;;;;;5111565;27;20465;-68
2022/10/20 06:03:32;;;;;;;20.70;16.23;;;11.10;99.90;;;;;;5111546;27;20518;-68
2022/10/20 06:06:00;;;;;;;19.17;16.60;;;11.10;99.90;;;;;;5109446;27;20873;-68
2022/10/20 06:08:31;;;;;;;21.90;17.13;;;11.10;99.90;;;;;;5104673;27;20468;-70
2022/10/20 06:11:03;;;;;;;23.30;16.67;;;11.20;99.90;;;;;;5110871;27;20471;-71
2022/10/20 06:13:31;;;;;;;18.30;16.37;;;11.20;99.90;;;;;;5108587;27;20914;-68
2022/10/20 06:16:02;;;;;;;20.00;16.00;;;11.20;99.90;;;;;;5108689;27;20457;-69
2022/10/20 06:18:29;;;;;;;20.00;16.83;;;11.20;99.90;;;;;;5105410;27;20626;-70
2022/10/20 06:21:00;;;;;;;18.47;16.47;;;11.20;99.90;;;;;;5101711;27;20454;-71
2022/10/20 06:23:27;;;;;;;26.27;16.30;;;11.20;99.90;;;;;;5093865;28;20484;-69
2022/10/20 06:25:55;;;;;;;26.93;17.00;;;11.20;99.90;;;;;;5105127;27;20484;-68
2022/10/20 06:28:23;;;;;;;17.97;16.17;;;11.20;99.90;;;;;;5103179;27;20847;-70
2022/10/20 06:30:51;;;;;;;19.97;17.87;;;11.20;99.90;;;;;;5112902;27;20456;-69
2022/10/20 06:33:18;;;;;;;18.43;15.53;;;11.20;99.90;;;;;;5109075;27;20546;-69
2022/10/20 06:35:44;;;;;;;24.20;17.60;;;11.30;99.90;;;;;;5107286;27;20457;-68
2022/10/20 06:38:11;;;;;;;22.00;17.63;;;11.30;99.90;;;;;;5111749;27;20457;-69
2022/10/20 06:40:38;;;;;;;18.37;16.47;;;11.30;99.90;;;;;;5106916;27;20465;-69
2022/10/20 06:43:05;;;;;;;21.03;16.53;;;11.40;99.90;;;;;;5098060;27;20449;-68
2022/10/20 06:45:33;;;;;;;18.80;16.93;;;11.50;99.90;;;;;;5106519;27;20563;-68
2022/10/20 06:48:00;;;;;;;18.60;16.70;;;11.50;99.90;;;;;;5107306;27;20467;-69
2022/10/20 06:50:28;;;;;;;21.73;17.80;;;11.50;99.90;;;;;;5105273;27;20493;-70
2022/10/20 06:52:56;;;;;;;20.47;16.30;;;11.50;99.90;;;;;;5082470;28;20488;-71
2022/10/20 06:55:22;;;;;;;19.47;16.93;;;11.60;99.90;;;;;;5108379;27;20895;-69
2022/10/20 06:57:49;;;;;;;19.60;16.43;;;11.60;99.90;;;;;;5109557;27;20844;-70
2022/10/20 07:00:16;;;;;;;17.97;16.30;;;11.70;99.90;;;;;;5109933;27;21028;-69
2022/10/20 07:02:45;;;;;;;20.10;16.47;;;11.70;99.90;;;;;;5107196;27;20467;-69
2022/10/20 07:05:12;;;;;;;17.97;16.17;;;11.70;99.90;;;;;;5100401;27;20833;-69
2022/10/20 07:07:40;;;;;;;18.50;15.70;;;11.70;99.90;;;;;;5106578;27;20971;-69
2022/10/20 07:10:08;;;;;;;18.70;16.97;;;11.80;99.90;;;;;;5107432;28;20492;-68
2022/10/20 07:12:35;;;;;;;16.77;15.10;;;11.80;99.90;;;;;;5110412;27;20460;-72
2022/10/20 07:15:02;;;;;;;18.93;15.90;;;11.80;99.90;;;;;;5099540;27;20456;-70
2022/10/20 07:17:29;;;;;;;19.67;16.43;;;11.90;99.90;;;;;;5106802;27;20464;-70
2022/10/20 07:19:57;;;;;;;20.27;16.90;;;11.90;99.90;;;;;;5102352;27;20488;-72
2022/10/20 07:22:24;;;;;;;17.93;16.27;;;11.90;99.90;;;;;;5107321;27;20529;-72
2022/10/20 07:24:52;;;;;;;18.67;16.77;;;12.00;99.90;;;;;;5108322;27;20485;-69
2022/10/20 07:27:18;;;;;;;17.47;15.73;;;12.10;99.90;;;;;;5099187;28;20520;-70
2022/10/20 07:29:45;;;;;;;21.03;19.03;;;12.10;99.90;;;;;;5107445;28;20468;-71
2022/10/20 07:32:13;;;;;;;19.07;17.43;;;12.20;99.90;;;;;;5110257;28;20945;-69
2022/10/20 07:34:41;;;;;;;19.93;17.80;;;12.20;99.90;;;;;;5114508;28;20801;-70
2022/10/20 07:37:09;;;;;;;20.17;18.27;;;12.30;99.90;;;;;;5096874;28;20534;-69
2022/10/20 07:39:36;;;;;;;21.10;17.13;;;12.30;99.90;;;;;;5097778;28;20490;-71
2022/10/20 07:42:03;;;;;;;26.70;17.47;;;12.40;99.90;;;;;;5108868;28;20481;-71
2022/10/20 07:44:30;;;;;;;18.97;17.33;;;12.50;99.90;;;;;;5109254;28;20490;-71
2022/10/20 07:46:57;;;;;;;19.47;17.50;;;12.60;99.90;;;;;;5094204;28;21229;-70
2022/10/20 07:49:23;;;;;;;19.63;17.63;;;12.70;99.90;;;;;;5108774;28;20832;-70
2022/10/20 07:51:50;;;;;;;21.67;18.57;;;12.70;99.90;;;;;;5087520;28;20462;-69
2022/10/20 07:54:19;;;;;;;20.50;18.53;;;12.80;99.90;;;;;;5094390;28;20471;-69
2022/10/20 07:56:45;;;;;;;19.70;17.70;;;12.90;99.90;;;;;;5104712;28;20794;-69
2022/10/20 07:59:13;;;;;;;18.07;16.60;;;13.00;99.90;;;;;;5103935;28;20524;-69
2022/10/20 08:01:41;;;;;;;22.90;17.20;;;13.00;99.90;;;;;;5105358;28;20460;-73
2022/10/20 08:04:08;;;;;;;19.87;18.00;;;13.10;99.90;;;;;;5105453;28;20538;-70
2022/10/20 08:06:35;;;;;;;18.97;17.20;;;13.20;99.90;;;;;;5108865;28;20467;-70
2022/10/20 08:09:02;;;;;;;20.20;18.23;;;13.40;99.90;;;;;;5109192;28;20468;-69
2022/10/20 08:11:30;;;;;;;26.00;17.90;;;13.40;99.90;;;;;;5094542;28;20461;-72
2022/10/20 08:13:57;;;;;;;20.73;18.87;;;13.50;99.90;;;;;;5099517;28;20457;-70
2022/10/20 08:16:24;;;;;;;20.43;17.87;;;13.60;99.90;;;;;;5086580;28;20840;-72
2022/10/20 08:18:52;;;;;;;20.93;19.00;;;13.70;99.90;;;;;;5107341;27;20999;-70
2022/10/20 08:21:21;;;;;;;21.40;19.40;;;13.80;99.90;;;;;;5108230;27;20491;-70
2022/10/20 08:23:50;;;;;;;21.50;19.27;;;13.90;99.90;;;;;;5111108;27;20522;-69
2022/10/20 08:26:19;;;;;;;20.87;18.63;;;14.00;99.90;;;;;;5108031;27;20469;-69
2022/10/20 08:28:47;;;;;;;21.60;19.53;;;14.10;99.90;;;;;;5108100;27;20989;-70
2022/10/20 08:31:15;;;;;;;21.20;19.00;;;14.30;99.90;;;;;;5096224;27;20513;-70
2022/10/20 08:33:42;;;;;;;20.57;18.60;;;14.20;99.90;;;;;;5104627;27;20469;-70
2022/10/20 08:36:10;;;;;;;23.80;19.80;;;14.20;99.90;;;;;;5098025;27;20494;-72
2022/10/20 08:38:39;;;;;;;20.60;19.00;;;14.30;99.90;;;;;;5105283;27;20468;-73
2022/10/20 08:41:12;;;;;;;23.13;19.37;;;14.30;99.90;;;;;;5110022;27;20483;-70
2022/10/20 08:43:41;;;;;;;20.93;19.33;;;14.50;99.90;;;;;;5111742;27;21309;-70
2022/10/20 08:46:14;;;;;;;24.00;19.37;;;14.40;99.90;;;;;;5107043;27;20490;-70
2022/10/20 08:48:41;;;;;;;21.37;19.33;;;14.50;99.90;;;;;;5110751;27;20464;-70
2022/10/20 08:51:16;;;;;;;22.10;19.93;;;14.60;99.90;;;;;;5104810;27;20465;-71
2022/10/20 08:53:42;;;;;;;21.43;19.53;;;14.70;99.90;;;;;;5100572;27;20461;-70
2022/10/20 08:56:12;;;;;;;21.80;19.77;;;14.70;99.90;;;;;;5103881;27;20444;-72
2022/10/20 08:58:43;;;;;;;22.00;19.70;;;14.70;99.90;;;;;;5112721;27;20543;-70
2022/10/20 09:01:20;;;;;;;21.63;19.90;;;14.80;99.90;;;;;;5102390;27;20464;-70
2022/10/20 09:03:51;;;;;;;22.17;20.10;;;14.70;99.90;;;;;;5107083;28;20460;-73
2022/10/20 09:06:18;;;;;;;25.73;19.90;;;14.80;99.90;;;;;;5109009;27;20539;-70
2022/10/20 09:08:46;;;;;;;20.60;19.10;;;14.80;99.90;;;;;;5104659;27;20526;-70
2022/10/20 09:11:17;;;;;;;23.57;19.73;;;15.10;99.90;;;;;;5101846;27;20533;-72
2022/10/20 09:13:44;;;;;;;20.67;19.00;;;15.20;99.90;;;;;;5106387;27;20517;-71
2022/10/20 09:16:23;;;;;;;21.30;19.43;;;15.20;99.90;;;;;;5104161;28;20456;-71
2022/10/20 09:18:55;;;;;;;26.07;20.80;;;15.30;99.90;;;;;;5106022;27;20462;-73
2022/10/20 09:21:23;;;;;;;21.43;19.63;;;15.40;99.90;;;;;;5105783;27;20530;-72
2022/10/20 09:23:51;;;;;;;22.23;20.40;;;15.50;99.90;;;;;;5109523;27;20526;-71
2022/10/20 09:26:21;;;;;;;20.20;18.60;;;15.40;99.90;;;;;;5104124;27;20908;-72
2022/10/20 09:28:49;;;;;;;21.73;19.70;;;15.40;99.90;;;;;;5107915;27;20476;-71
2022/10/20 09:31:31;;;;;;;21.73;19.83;;;15.40;99.90;;;;;;5107110;27;20472;-71
2022/10/20 09:33:58;;;;;;;22.23;20.33;;;15.40;99.90;;;;;;5105153;27;20488;-71
2022/10/20 09:36:30;;;;;;;21.50;19.50;;;15.40;99.90;;;;;;5111220;27;20458;-71
2022/10/20 09:38:57;;;;;;;22.47;20.30;;;15.40;99.90;;;;;;5114224;27;20453;-73
2022/10/20 09:41:27;;;;;;;25.67;23.27;;;15.30;99.90;;;;;;5112427;27;20793;-68
2022/10/20 09:43:58;;;;;;;26.67;24.40;;;15.20;99.90;;;;;;5099361;27;20462;-67
2022/10/20 09:46:30;;;;;;;28.30;25.37;;;15.00;99.90;;;;;;5101619;27;20472;-69
2022/10/20 09:48:58;;;;;;;27.30;24.73;;;14.80;99.90;;;;;;5106171;27;20469;-70
2022/10/20 09:51:26;;;;;;;26.63;24.37;;;14.60;99.90;;;;;;5105926;27;20473;-68
2022/10/20 09:53:57;;;;;;;26.80;24.50;;;14.50;99.90;;;;;;5110029;27;20462;-69
2022/10/20 09:56:29;;;;;;;26.70;23.97;;;14.50;99.90;;;;;;5110758;27;20471;-70
2022/10/20 09:58:58;;;;;;;24.77;22.37;;;14.40;99.90;;;;;;5110290;27;20468;-70
2022/10/20 10:01:26;;;;;;;25.70;21.60;;;14.40;99.90;;;;;;5089837;27;20845;-69
2022/10/20 10:03:58;;;;;;;23.80;21.27;;;14.50;99.90;;;;;;5097276;27;20878;-70
2022/10/20 10:06:32;;;;;;;22.87;20.77;;;14.60;99.90;;;;;;5098766;27;20452;-69
2022/10/20 10:09:00;;;;;;;28.30;20.50;;;14.70;99.90;;;;;;5109978;27;20461;-70
2022/10/20 10:11:32;;;;;;;23.30;21.10;;;14.90;99.90;;;;;;5109119;27;20464;-68
2022/10/20 10:14:00;;;;;;;22.47;20.33;;;15.00;99.90;;;;;;5107267;27;21537;-70
2022/10/20 10:16:40;;;;;;;30.10;21.40;;;14.80;99.90;;;;;;5111790;27;20457;-69
2022/10/20 10:19:16;;;;;;;26.27;20.30;;;14.80;99.90;;;;;;5107213;27;20551;-69
2022/10/20 10:21:46;;;;;;;26.70;21.43;;;14.70;99.90;;;;;;5106870;27;20456;-69
2022/10/20 10:24:37;;;;;;;25.67;22.97;;;14.70;99.90;;;;;;5104439;27;20468;-70
2022/10/20 10:27:06;;;;;;;25.57;23.20;;;14.60;99.90;;;;;;5109334;27;20490;-70
2022/10/20 10:29:35;;;;;;;26.00;23.50;;;14.40;99.90;;;;;;5108654;27;20979;-69
2022/10/20 10:32:14;;;;;;;27.07;24.27;;;14.40;99.90;;;;;;5107269;27;20575;-68
2022/10/20 10:35:02;;;;;;;28.07;25.30;;;14.10;99.90;;;;;;5103951;27;20510;-68
2022/10/20 10:37:31;;;;;;;27.90;25.20;;;14.00;99.90;;;;;;5086569;27;20461;-68
2022/10/20 10:39:58;;;;;;;29.33;26.60;;;13.90;99.90;;;;;;5103984;28;20482;-70
2022/10/20 10:42:44;;;;;;;31.03;27.80;;;13.90;99.90;;;;;;5104209;27;20466;-67
2022/10/20 10:45:19;;;;;;;31.30;28.00;;;13.70;99.90;;;;;;5104582;27;20489;-68
2022/10/20 10:48:12;;;;;;;30.80;28.20;;;13.60;99.90;;;;;;5103023;27;20488;-67
2022/10/20 10:50:48;;;;;;;34.37;29.73;;;13.60;99.90;;;;;;5097762;27;20472;-69
2022/10/20 10:53:26;;;;;;;35.10;31.00;;;13.50;99.90;;;;;;5100980;27;20637;-68
2022/10/20 10:56:03;;;;;;;34.13;30.93;;;13.40;99.90;;;;;;5102999;27;20457;-68
2022/10/20 10:58:39;;;;;;;33.70;30.37;;;13.40;99.90;;;;;;5105575;27;21000;-67
2022/10/20 11:01:23;;;;;;;34.20;31.20;;;13.40;99.90;;;;;;5104617;27;20497;-69
2022/10/20 11:04:24;;;;;;;35.50;30.60;;;13.40;99.90;;;;;;5106033;27;20491;-68
2022/10/20 11:06:56;;;;;;;33.70;30.50;;;13.40;99.90;;;;;;5105675;27;20453;-70
2022/10/20 11:09:31;;;;;;;34.47;31.13;;;13.40;99.90;;;;;;5107787;27;20988;-70
2022/10/20 11:12:23;;;;;;;33.90;30.73;;;13.30;99.90;;;;;;5093739;27;20832;-70
2022/10/20 11:15:03;;;;;;;40.43;31.30;;;13.20;99.90;;;;;;5105437;27;20980;-69
2022/10/20 11:17:42;;;;;;;30.63;27.87;;;13.10;99.90;;;;;;5104725;27;20457;-69
2022/10/20 11:20:24;;;;;;;33.17;29.63;;;13.10;99.90;;;;;;5107562;27;20489;-70
2022/10/20 11:23:08;;;;;;;33.23;29.77;;;13.00;99.90;;;;;;5083427;28;20458;-70
2022/10/20 11:25:43;;;;;;;52.17;31.90;;;13.00;99.90;;;;;;5107818;27;20485;-69
2022/10/20 11:28:27;;;;;;;34.27;31.07;;;13.10;99.90;;;;;;5102329;27;20491;-70
2022/10/20 11:30:55;;;;;;;33.07;29.97;;;13.00;99.90;;;;;;5102564;28;20508;-69
2022/10/20 11:33:25;;;;;;;42.83;32.60;;;13.00;99.90;;;;;;5102433;28;20462;-71
2022/10/20 11:35:59;;;;;;;32.67;29.47;;;13.10;99.90;;;;;;5095985;28;20875;-70
2022/10/20 11:38:33;;;;;;;40.00;32.00;;;13.10;99.90;;;;;;5106608;27;20464;-70
2022/10/20 11:41:06;;;;;;;33.93;30.43;;;13.20;99.90;;;;;;5105485;28;20556;-69
2022/10/20 11:43:37;;;;;;;36.23;32.50;;;13.20;99.90;;;;;;5104877;28;20453;-70
2022/10/20 11:46:06;;;;;;;31.97;28.37;;;13.20;99.90;;;;;;5105776;28;20752;-69
2022/10/20 11:48:38;;;;;;;34.20;28.07;;;13.10;99.90;;;;;;5107613;28;20472;-69
2022/10/20 11:51:27;;;;;;;33.37;29.90;;;13.10;99.90;;;;;;5106125;27;20498;-68
2022/10/20 11:54:13;;;;;;;36.93;30.30;;;13.10;99.90;;;;;;5104685;28;20464;-70
2022/10/20 11:56:56;;;;;;;33.20;30.03;;;13.10;99.90;;;;;;5103957;28;20492;-70
2022/10/20 11:59:52;;;;;;;32.57;29.17;;;13.00;99.90;;;;;;5108398;27;20449;-70
2022/10/20 12:02:45;;;;;;;32.97;29.70;;;13.00;99.90;;;;;;5111845;27;20456;-71
2022/10/20 12:05:40;;;;;;;30.93;27.93;;;13.10;99.90;;;;;;5114919;27;20474;-72
2022/10/20 12:08:29;;;;;;;32.10;28.83;;;13.10;99.90;;;;;;5110145;27;21193;-71
2022/10/20 12:11:04;;;;;;;30.50;27.60;;;13.10;99.90;;;;;;5109554;27;20472;-71
2022/10/20 12:13:41;;;;;;;35.37;27.53;;;13.10;99.90;;;;;;5110880;27;20464;-70
2022/10/20 12:16:07;;;;;;;32.03;27.57;;;13.20;99.90;;;;;;5108950;27;21392;-71
2022/10/20 12:18:36;;;;;;;29.43;26.37;;;13.40;99.90;;;;;;5110661;27;20452;-70
2022/10/20 12:21:04;;;;;;;28.13;25.27;;;13.50;99.90;;;;;;5111876;27;20500;-69
2022/10/20 12:24:04;;;;;;;30.83;27.00;;;13.70;99.90;;;;;;5109658;27;20460;-70
2022/10/20 12:27:03;;;;;;;37.57;27.57;;;13.80;99.90;;;;;;5104508;27;20483;-70
2022/10/20 12:29:54;;;;;;;32.23;25.53;;;14.00;99.90;;;;;;5096113;27;20526;-69
2022/10/20 12:32:57;;;;;;;32.00;24.93;;;14.20;99.90;;;;;;5099437;27;20463;-69
2022/10/20 12:35:31;;;;;;;29.73;25.57;;;14.30;99.90;;;;;;5105580;27;20456;-70
2022/10/20 12:38:01;;;;;;;28.40;25.40;;;14.30;99.90;;;;;;5116775;27;20974;-70
2022/10/20 12:40:33;;;;;;;29.93;25.00;;;14.30;99.90;;;;;;5111301;27;20488;-70
2022/10/20 12:43:00;;;;;;;31.67;25.23;;;14.40;99.90;;;;;;5110169;27;20994;-70
2022/10/20 12:45:37;;;;;;;28.07;24.13;;;14.50;99.90;;;;;;5112214;27;20769;-69
2022/10/20 12:48:05;;;;;;;34.70;24.60;;;14.40;99.90;;;;;;5108452;27;20464;-70